Time;durP1;ratioP1;P1;durP2;ratioP2;P2;SDS_P1;SDS_P2;PMS_P1;PMS_P2;Temp;Humidity;BMP_temperature;BMP_pressure;BME280_temperature;BME280_humidity;BME280_pressure;Samples;Min_cycle;Max_cycle;Signal;HPM_P1;HPM_P2
2020/12/17 00:00:38;;;;;;;72.87;42.70;;;;;;;4.20;100.00;101319.42;3614841;82;25855;-75
2020/12/17 00:05:39;;;;;;;72.03;42.10;;;;;;;4.22;100.00;101326.91;3614910;82;25742;-75
2020/12/17 00:10:40;;;;;;;70.52;40.92;;;;;;;4.19;100.00;101328.21;3615373;82;25864;-75
2020/12/17 00:15:41;;;;;;;69.33;40.93;;;;;;;4.25;100.00;101332.63;3615456;82;26429;-75
2020/12/17 00:20:42;;;;;;;69.50;40.47;;;;;;;4.28;100.00;101340.11;3615209;82;25855;-74
2020/12/17 00:25:43;;;;;;;68.30;40.40;;;;;;;4.27;100.00;101347.58;3615609;82;25746;-74
2020/12/17 00:30:44;;;;;;;61.93;38.07;;;;;;;4.20;100.00;101343.17;3615550;82;25762;-74
2020/12/17 00:35:45;;;;;;;64.37;39.40;;;;;;;4.26;100.00;101339.67;3616986;80;25735;-75
2020/12/17 00:40:46;;;;;;;71.93;41.90;;;;;;;4.28;100.00;101342.75;3625382;81;28278;-74
2020/12/17 00:45:47;;;;;;;71.43;39.80;;;;;;;4.33;100.00;101338.80;3625243;81;25798;-69
2020/12/17 00:50:47;;;;;;;67.50;39.20;;;;;;;4.21;100.00;101340.98;3625154;81;25795;-71
2020/12/17 00:55:48;;;;;;;60.87;38.17;;;;;;;4.18;100.00;101346.23;3625297;81;25719;-70
2020/12/17 01:00:49;;;;;;;74.37;42.20;;;;;;;4.23;100.00;101341.84;3625113;81;25951;-70
2020/12/17 01:05:50;;;;;;;73.40;41.40;;;;;;;4.27;100.00;101346.27;3624905;81;25778;-75
2020/12/17 01:10:52;;;;;;;66.03;38.83;;;;;;;4.21;100.00;101356.81;3625003;81;33733;-75
2020/12/17 01:15:53;;;;;;;73.43;42.37;;;;;;;4.21;100.00;101356.81;3624965;81;25928;-75
2020/12/17 01:20:54;;;;;;;75.97;43.77;;;;;;;4.25;100.00;101353.74;3624898;81;26581;-75
2020/12/17 01:25:54;;;;;;;69.90;43.10;;;;;;;4.30;100.00;101356.81;3624942;81;25743;-75
2020/12/17 01:30:55;;;;;;;67.07;40.17;;;;;;;4.23;100.00;101356.36;3625240;81;33238;-70
2020/12/17 01:36:04;;;;;;;68.43;41.63;;;;;;;4.21;100.00;101355.91;3623824;80;25790;-75
2020/12/17 01:41:08;;;;;;;70.93;44.07;;;;;;;4.20;100.00;101350.19;3614880;82;33213;-75
2020/12/17 01:46:12;;;;;;;78.60;44.20;;;;;;;4.23;100.00;101353.72;3614601;82;43089;-75
2020/12/17 01:51:13;;;;;;;73.17;44.10;;;;;;;4.20;100.00;101352.41;3614603;82;33131;-70
2020/12/17 01:56:24;;;;;;;67.53;39.27;;;;;;;4.20;100.00;101355.05;3614958;82;25786;-75
2020/12/17 02:01:29;;;;;;;67.80;39.63;;;;;;;4.20;100.00;101356.78;3614493;81;33164;-75
2020/12/17 02:06:30;;;;;;;70.40;43.87;;;;;;;4.24;100.00;101355.94;3615115;82;25849;-75
2020/12/17 02:11:31;;;;;;;69.13;41.50;;;;;;;4.19;100.00;101355.92;3615102;82;25806;-76
2020/12/17 02:16:32;;;;;;;63.33;38.40;;;;;;;4.19;100.00;101355.92;3615031;82;25699;-76
2020/12/17 02:21:33;;;;;;;65.20;38.73;;;;;;;4.17;100.00;101358.98;3614877;82;25737;-75
2020/12/17 02:26:35;;;;;;;60.57;37.93;;;;;;;4.20;100.00;101366.03;3615022;82;25769;-75
2020/12/17 02:31:36;;;;;;;60.60;37.27;;;;;;;4.27;100.00;101362.10;3614941;82;25970;-70
2020/12/17 02:36:37;;;;;;;52.73;33.93;;;;;;;4.24;100.00;101367.81;3616511;80;25911;-74
2020/12/17 02:41:39;;;;;;;47.00;31.20;;;;;;;4.28;100.00;101355.05;3624908;81;25766;-75
2020/12/17 02:46:40;;;;;;;47.20;32.63;;;;;;;4.28;100.00;101355.05;3624802;81;26165;-76
2020/12/17 02:51:40;;;;;;;50.97;32.17;;;;;;;4.27;100.00;101356.82;3624781;81;25852;-75
2020/12/17 02:56:41;;;;;;;49.57;31.93;;;;;;;4.15;100.00;101360.77;3624782;81;25788;-75
2020/12/17 03:01:42;;;;;;;50.30;30.70;;;;;;;4.17;100.00;101356.34;3624696;81;30948;-72
2020/12/17 03:06:43;;;;;;;42.60;27.97;;;;;;;4.11;100.00;101357.23;3603524;81;30966;-70
2020/12/17 03:11:44;;;;;;;39.83;27.50;;;;;;;4.18;100.00;101361.20;3624946;81;31056;-70
2020/12/17 03:16:45;;;;;;;45.20;30.63;;;;;;;4.10;100.00;101362.07;3624745;81;25751;-75
2020/12/17 03:21:51;;;;;;;50.47;31.53;;;;;;;4.06;100.00;101359.41;3624731;81;26251;-75
2020/12/17 03:26:52;;;;;;;50.07;31.87;;;;;;;4.09;100.00;101360.73;3624809;81;30924;-74
2020/12/17 03:31:53;;;;;;;50.57;31.47;;;;;;;4.13;100.00;101359.88;3624743;81;26026;-74
2020/12/17 03:36:54;;;;;;;54.00;33.47;;;;;;;4.28;100.00;101364.28;3624707;80;25853;-75
2020/12/17 03:41:55;;;;;;;59.20;33.73;;;;;;;4.27;100.00;101368.70;3624944;81;25738;-75
2020/12/17 03:46:56;;;;;;;51.28;32.13;;;;;;;4.25;100.00;101373.09;3625101;81;25786;-75
2020/12/17 03:51:57;;;;;;;51.20;31.30;;;;;;;4.26;100.00;101371.34;3625596;81;25786;-75
2020/12/17 03:56:58;;;;;;;54.70;34.00;;;;;;;4.27;100.00;101364.74;3625997;81;25722;-75
2020/12/17 04:01:59;;;;;;;56.92;33.20;;;;;;;4.34;100.00;101367.39;3625189;81;25770;-75
2020/12/17 04:07:00;;;;;;;57.43;33.83;;;;;;;4.24;100.00;101368.68;3624969;81;25809;-75
2020/12/17 04:12:01;;;;;;;50.27;33.10;;;;;;;4.22;100.00;101363.86;3625433;81;34992;-75
2020/12/17 04:17:02;;;;;;;50.07;33.93;;;;;;;4.28;100.00;101366.92;3625508;81;34893;-75
2020/12/17 04:22:04;;;;;;;54.30;33.67;;;;;;;4.28;100.00;101365.19;3624989;81;34952;-75
2020/12/17 04:27:04;;;;;;;53.67;32.47;;;;;;;4.25;100.00;101372.22;3624963;81;34013;-75
2020/12/17 04:32:06;;;;;;;45.47;30.97;;;;;;;4.23;100.00;101361.63;3624935;81;27292;-74
2020/12/17 04:37:07;;;;;;;45.17;30.97;;;;;;;4.23;100.00;101361.63;3625006;80;27255;-74
2020/12/17 04:42:09;;;;;;;46.17;30.83;;;;;;;4.27;100.00;101359.46;3625001;81;27194;-75
2020/12/17 04:47:14;;;;;;;45.70;29.17;;;;;;;4.24;100.00;101354.16;3625006;81;28207;-74
2020/12/17 04:52:15;;;;;;;44.83;29.05;;;;;;;4.14;100.00;101365.59;3625102;81;25989;-75
2020/12/17 04:57:16;;;;;;;42.07;30.03;;;;;;;4.20;100.00;101364.70;3624825;81;32533;-75
2020/12/17 05:02:21;;;;;;;44.57;30.03;;;;;;;4.17;100.00;101358.98;3624926;81;33513;-75
2020/12/17 05:07:23;;;;;;;41.73;29.30;;;;;;;4.13;100.00;101365.16;3624999;81;34878;-75
2020/12/17 05:12:25;;;;;;;42.07;28.67;;;;;;;4.10;100.00;101370.41;3624887;81;34870;-75
2020/12/17 05:17:26;;;;;;;38.37;27.90;;;;;;;4.08;100.00;101368.23;3624963;81;33059;-70
2020/12/17 05:22:28;;;;;;;41.63;28.73;;;;;;;4.13;100.00;101366.47;3625087;81;32060;-69
2020/12/17 05:27:29;;;;;;;44.07;28.30;;;;;;;4.11;100.00;101371.75;3624802;81;34925;-71
2020/12/17 05:32:30;;;;;;;42.33;27.70;;;;;;;4.03;100.00;101372.59;3624909;81;33038;-69
2020/12/17 05:37:32;;;;;;;43.97;30.23;;;;;;;4.08;100.00;101374.83;3624780;80;27313;-70
2020/12/17 05:42:33;;;;;;;41.37;26.33;;;;;;;4.03;100.00;101373.48;3624821;81;33005;-69
2020/12/17 05:47:34;;;;;;;40.87;27.87;;;;;;;4.05;100.00;101374.80;3603565;81;32995;-70
2020/12/17 05:52:37;;;;;;;40.87;28.63;;;;;;;4.21;100.00;101368.69;3625120;81;34074;-75
2020/12/17 05:57:54;;;;;;;36.45;25.55;;;;;;;4.13;100.00;101363.83;3578782;81;192339;-76
2020/12/17 06:02:55;;;;;;;37.43;25.57;;;;;;;4.04;100.00;101361.16;3606764;82;35219;-75
2020/12/17 06:08:00;;;;;;;33.50;23.93;;;;;;;4.15;100.00;101372.19;3542220;83;33499;-75
2020/12/17 06:13:03;;;;;;;36.15;25.27;;;;;;;4.16;100.00;101371.73;3606744;82;26584;-75
2020/12/17 06:18:04;;;;;;;33.67;24.77;;;;;;;4.19;100.00;101374.39;3606667;82;35162;-74
2020/12/17 06:23:06;;;;;;;32.50;23.80;;;;;;;4.17;100.00;101372.19;3606963;82;34869;-75
2020/12/17 06:28:16;;;;;;;27.27;21.37;;;;;;;4.17;100.00;101370.86;3606638;82;35146;-75
2020/12/17 06:33:16;;;;;;;30.67;22.20;;;;;;;4.24;100.00;101376.59;3606981;80;34790;-76
2020/12/17 06:38:25;;;;;;;33.37;22.90;;;;;;;4.20;100.00;101377.48;3592824;81;32165;-74
2020/12/17 06:43:36;;;;;;;30.87;22.77;;;;;;;4.13;100.00;101380.98;3542161;83;34879;-75
2020/12/17 06:48:40;;;;;;;26.83;20.53;;;;;;;4.09;100.00;101380.09;3542162;83;35351;-75
2020/12/17 06:53:42;;;;;;;25.67;20.20;;;;;;;4.21;100.00;101384.53;3542102;83;34904;-75
2020/12/17 06:58:44;;;;;;;28.47;21.00;;;;;;;4.20;100.00;101388.45;3542190;83;34865;-70
2020/12/17 07:03:48;;;;;;;31.37;21.90;;;;;;;4.13;100.00;101394.18;3542408;83;34869;-76
2020/12/17 07:08:52;;;;;;;29.57;20.83;;;;;;;4.13;100.00;101399.45;3542293;83;35280;-75
2020/12/17 07:13:55;;;;;;;28.17;20.63;;;;;;;4.18;100.00;101400.34;3542303;83;34893;-76
2020/12/17 07:19:19;;;;;;;29.23;21.20;;;;;;;4.24;100.00;101394.20;3542494;83;35360;-75
2020/12/17 07:24:27;;;;;;;31.83;22.47;;;;;;;4.23;100.00;101390.67;3542382;83;35395;-70
2020/12/17 07:29:39;;;;;;;30.03;21.17;;;;;;;4.17;100.00;101391.11;3542417;83;34928;-69
2020/12/17 07:34:40;;;;;;;27.63;20.90;;;;;;;4.21;100.00;101392.86;3524817;83;35349;-69
2020/12/17 07:39:41;;;;;;;28.40;21.97;;;;;;;4.27;100.00;101390.23;3542285;82;33474;-70
2020/12/17 07:44:42;;;;;;;34.27;24.13;;;;;;;4.22;100.00;101396.85;3542505;83;34099;-76
2020/12/17 07:49:43;;;;;;;33.93;23.33;;;;;;;4.23;100.00;101393.31;3542609;83;26260;-75
2020/12/17 07:54:45;;;;;;;35.10;24.20;;;;;;;4.24;100.00;101393.75;3542269;83;27210;-77
2020/12/17 07:59:46;;;;;;;34.17;23.37;;;;;;;4.23;100.00;101389.34;3542387;83;27189;-71
2020/12/17 08:04:53;;;;;;;34.57;25.27;;;;;;;4.27;100.00;101390.23;3542320;83;28270;-74
2020/12/17 08:09:59;;;;;;;40.23;28.20;;;;;;;4.33;100.00;101393.34;3542481;83;35052;-75
2020/12/17 08:15:08;;;;;;;43.90;29.53;;;;;;;4.35;100.00;101395.55;3540704;82;35428;-76
2020/12/17 08:20:15;;;;;;;42.30;27.63;;;;;;;4.33;100.00;101402.16;3542360;83;35260;-76
2020/12/17 08:25:16;;;;;;;42.90;29.53;;;;;;;4.36;100.00;101403.91;3542676;83;35344;-75
2020/12/17 08:30:20;;;;;;;45.40;30.57;;;;;;;4.45;100.00;101402.59;3542963;83;32596;-75
2020/12/17 08:35:25;;;;;;;45.97;32.07;;;;;;;4.44;100.00;101404.36;3542868;83;35309;-75
2020/12/17 08:40:29;;;;;;;43.35;30.23;;;;;;;4.44;100.00;101404.36;3582593;80;26237;-75
2020/12/17 08:45:30;;;;;;;41.93;28.87;;;;;;;4.39;100.00;101405.22;3621879;82;35398;-76
2020/12/17 08:50:33;;;;;;;43.27;29.03;;;;;;;4.47;100.00;101404.34;3621647;82;32540;-76
2020/12/17 08:55:34;;;;;;;43.83;30.17;;;;;;;4.48;100.00;101405.25;3621747;81;35270;-76
2020/12/17 09:00:35;;;;;;;45.97;31.10;;;;;;;4.43;100.00;101404.38;3622191;81;33535;-76
2020/12/17 09:05:36;;;;;;;49.85;33.30;;;;;;;4.46;100.00;101405.67;3621885;81;32101;-76
2020/12/17 09:10:37;;;;;;;47.40;31.17;;;;;;;4.42;100.00;101407.88;3621819;82;28236;-76
2020/12/17 09:15:38;;;;;;;45.17;31.00;;;;;;;4.45;100.00;101406.55;3621981;81;26357;-75
2020/12/17 09:20:39;;;;;;;49.33;33.90;;;;;;;4.53;100.00;101407.45;3621880;81;25822;-75
2020/12/17 09:25:40;;;;;;;48.13;33.23;;;;;;;4.58;100.00;101403.50;3621806;81;25802;-74
2020/12/17 09:30:41;;;;;;;46.75;31.90;;;;;;;4.51;100.00;101399.09;3622113;82;25772;-75
2020/12/17 09:35:42;;;;;;;43.00;29.37;;;;;;;4.55;100.00;101398.20;3621824;81;25833;-76
2020/12/17 09:40:46;;;;;;;42.13;30.60;;;;;;;4.66;100.00;101407.45;3583139;81;25866;-75
2020/12/17 09:45:49;;;;;;;45.73;30.83;;;;;;;4.71;100.00;101405.27;3545412;83;26710;-76
2020/12/17 09:51:02;;;;;;;44.03;30.93;;;;;;;4.77;100.00;101407.91;3545388;82;34876;-76
2020/12/17 09:56:06;;;;;;;45.33;29.87;;;;;;;4.74;100.00;101414.95;3486177;84;34950;-75
2020/12/17 10:01:07;;;;;;;41.50;27.70;;;;;;;4.77;100.00;101411.00;3545179;82;35444;-75
2020/12/17 10:06:08;;;;;;;40.77;27.57;;;;;;;4.75;100.00;101406.14;3486153;84;30620;-77
2020/12/17 10:11:09;;;;;;;42.53;28.27;;;;;;;4.76;100.00;101396.89;3545429;82;33129;-75
2020/12/17 10:16:17;;;;;;;43.60;29.40;;;;;;;4.73;100.00;101399.55;3545377;82;29118;-75
2020/12/17 10:21:18;;;;;;;43.20;30.43;;;;;;;4.78;100.00;101396.91;3545418;82;35394;-76
2020/12/17 10:26:19;;;;;;;36.90;27.23;;;;;;;4.73;100.00;101387.66;3485991;84;33036;-75
2020/12/17 10:31:19;;;;;;;40.83;28.40;;;;;;;4.79;100.00;101377.55;3545349;82;27335;-71
2020/12/17 10:36:22;;;;;;;43.77;29.00;;;;;;;4.83;100.00;101367.41;3545415;82;27205;-76
2020/12/17 10:41:27;;;;;;;43.17;30.43;;;;;;;4.86;100.00;101363.45;3587287;82;34840;-76
2020/12/17 10:46:28;;;;;;;44.65;29.00;;;;;;;4.88;100.00;101358.16;3621714;82;25880;-75
2020/12/17 10:51:30;;;;;;;44.50;28.00;;;;;;;4.84;100.00;101366.53;3621453;82;33519;-75
2020/12/17 10:56:31;;;;;;;37.53;24.97;;;;;;;4.88;100.00;101362.98;3621600;81;33536;-76
2020/12/17 11:01:32;;;;;;;43.90;27.93;;;;;;;4.90;100.00;101357.27;3621502;82;32149;-76
2020/12/17 11:06:33;;;;;;;43.17;29.00;;;;;;;5.06;100.00;101359.44;3621709;81;28199;-76
2020/12/17 11:11:34;;;;;;;38.60;26.87;;;;;;;4.95;100.00;101351.53;3621691;82;29152;-76
2020/12/17 11:16:35;;;;;;;39.13;27.27;;;;;;;4.98;100.00;101352.42;3621515;81;25811;-75
2020/12/17 11:21:36;;;;;;;38.83;27.13;;;;;;;4.99;100.00;101352.86;3621505;82;25762;-76
2020/12/17 11:26:45;;;;;;;43.40;27.67;;;;;;;5.08;100.00;101343.57;3621463;82;25858;-76
2020/12/17 11:31:47;;;;;;;41.53;27.20;;;;;;;5.06;100.00;101354.16;3621463;81;35329;-75
2020/12/17 11:36:48;;;;;;;43.30;27.00;;;;;;;5.07;100.00;101339.20;3621517;81;35439;-75
2020/12/17 11:41:50;;;;;;;42.73;27.53;;;;;;;5.02;100.00;101339.63;3601746;81;34446;-75
2020/12/17 11:46:52;;;;;;;43.90;27.50;;;;;;;5.01;100.00;101343.14;3586312;82;35309;-76
2020/12/17 11:51:54;;;;;;;42.17;27.17;;;;;;;5.11;100.00;101344.91;3586250;82;34892;-76
2020/12/17 11:56:55;;;;;;;39.20;26.83;;;;;;;5.08;100.00;101339.61;3586618;82;35331;-75
2020/12/17 12:01:57;;;;;;;42.60;27.50;;;;;;;5.03;100.00;101337.42;3586805;82;33524;-75
2020/12/17 12:06:58;;;;;;;44.20;27.53;;;;;;;4.97;100.00;101338.30;3586759;82;35589;-75
2020/12/17 12:11:59;;;;;;;43.45;27.22;;;;;;;5.15;100.00;101332.10;3586801;82;34505;-76
2020/12/17 12:17:00;;;;;;;45.73;29.40;;;;;;;5.12;100.00;101329.48;3587936;82;27190;-72
2020/12/17 12:22:01;;;;;;;45.80;29.23;;;;;;;5.14;100.00;101326.41;3588427;82;26220;-75
2020/12/17 12:27:02;;;;;;;47.83;28.17;;;;;;;5.13;100.00;101319.78;3586537;82;27308;-76
2020/12/17 12:32:03;;;;;;;43.43;27.63;;;;;;;5.12;100.00;101324.20;3586830;82;29154;-77
2020/12/17 12:37:04;;;;;;;44.60;27.23;;;;;;;5.10;100.00;101325.95;3586817;82;25799;-75
2020/12/17 12:42:07;;;;;;;45.23;28.37;;;;;;;5.10;100.00;101325.95;3605296;80;25824;-75
2020/12/17 12:47:08;;;;;;;42.70;28.23;;;;;;;5.11;100.00;101323.76;3621831;82;25850;-75
2020/12/17 12:52:09;;;;;;;46.03;28.53;;;;;;;5.07;100.00;101324.66;3622282;82;26652;-75
2020/12/17 12:57:10;;;;;;;42.57;27.93;;;;;;;4.95;100.00;101311.89;3622560;81;28226;-75
2020/12/17 13:02:11;;;;;;;40.23;28.27;;;;;;;5.00;100.00;101311.89;3622946;82;25846;-75
2020/12/17 13:07:13;;;;;;;41.80;27.83;;;;;;;5.01;100.00;101304.83;3624215;82;25784;-76
2020/12/17 13:12:14;;;;;;;44.87;29.97;;;;;;;5.10;100.00;101300.84;3622029;82;26253;-75
2020/12/17 13:17:15;;;;;;;42.53;30.13;;;;;;;5.03;100.00;101294.72;3621814;82;25847;-75
2020/12/17 13:22:16;;;;;;;41.83;29.63;;;;;;;5.01;100.00;101285.91;3621896;81;25766;-71
2020/12/17 13:27:17;;;;;;;41.88;27.90;;;;;;;4.99;100.00;101286.34;3621811;82;25804;-76
2020/12/17 13:32:18;;;;;;;41.67;30.37;;;;;;;4.98;100.00;101291.19;3621734;82;25810;-77
2020/12/17 13:37:19;;;;;;;38.13;26.27;;;;;;;5.00;100.00;101287.23;3621814;82;25717;-75
2020/12/17 13:42:25;;;;;;;44.03;29.53;;;;;;;4.94;100.00;101286.34;3604187;82;25780;-75
2020/12/17 13:47:28;;;;;;;40.80;30.27;;;;;;;4.94;100.00;101281.52;3586813;82;32974;-76
2020/12/17 13:52:28;;;;;;;45.03;30.27;;;;;;;5.02;100.00;101286.34;3586609;82;32473;-78
2020/12/17 13:57:29;;;;;;;47.40;32.27;;;;;;;5.06;100.00;101285.90;3586438;82;30675;-75
2020/12/17 14:02:32;;;;;;;50.73;32.13;;;;;;;5.02;100.00;101286.77;3586727;82;26178;-75
2020/12/17 14:07:33;;;;;;;43.83;30.80;;;;;;;4.93;100.00;101281.94;3586773;82;33111;-75
2020/12/17 14:12:34;;;;;;;44.37;31.37;;;;;;;4.88;100.00;101279.77;3586879;82;30176;-76
2020/12/17 14:17:35;;;;;;;43.43;30.63;;;;;;;4.90;100.00;101275.78;3586825;82;30176;-76
2020/12/17 14:22:36;;;;;;;46.47;31.00;;;;;;;4.99;100.00;101280.19;3586691;82;25792;-75
2020/12/17 14:27:37;;;;;;;46.83;32.30;;;;;;;4.91;100.00;101279.77;3586720;82;25781;-75
2020/12/17 14:32:38;;;;;;;41.97;29.77;;;;;;;4.83;100.00;101280.22;3586683;82;25820;-74
2020/12/17 14:37:39;;;;;;;45.07;30.43;;;;;;;4.89;100.00;101282.84;3586653;82;26253;-77
2020/12/17 14:42:40;;;;;;;45.53;32.50;;;;;;;4.95;100.00;101280.19;3604167;82;26275;-76
2020/12/17 14:47:45;;;;;;;51.43;34.00;;;;;;;4.98;100.00;101275.78;3621748;81;26191;-71
2020/12/17 14:52:44;;;;;;;46.60;31.77;;;;;;;4.90;100.00;101285.93;3621299;81;25727;-76
2020/12/17 14:57:45;;;;;;;47.80;32.88;;;;;;;4.81;100.00;101274.05;3621525;82;25783;-76
2020/12/17 15:02:46;;;;;;;44.73;31.90;;;;;;;4.87;100.00;101270.07;3621397;82;25997;-75
2020/12/17 15:07:47;;;;;;;46.17;32.40;;;;;;;4.82;100.00;101265.70;3621530;81;25763;-77
2020/12/17 15:12:48;;;;;;;50.37;32.27;;;;;;;4.79;100.00;101254.70;3621960;81;26222;-77
2020/12/17 15:17:49;;;;;;;47.03;30.33;;;;;;;4.76;100.00;101258.20;3621991;81;25972;-76
2020/12/17 15:22:50;;;;;;;46.87;32.43;;;;;;;4.72;100.00;101259.56;3621796;81;25776;-70
2020/12/17 15:27:51;;;;;;;49.10;33.40;;;;;;;4.81;100.00;101261.30;3621829;82;25827;-70
2020/12/17 15:32:51;;;;;;;53.27;34.30;;;;;;;4.81;100.00;101257.33;3621466;82;28262;-71
2020/12/17 15:37:52;;;;;;;49.83;33.77;;;;;;;4.79;100.00;101265.27;3621594;81;25834;-71
2020/12/17 15:42:53;;;;;;;47.07;31.80;;;;;;;4.74;100.00;101273.63;3605290;81;25911;-70
2020/12/17 15:47:54;;;;;;;45.37;32.23;;;;;;;4.82;100.00;101274.50;3586810;82;26181;-70
2020/12/17 15:52:55;;;;;;;47.73;32.93;;;;;;;4.82;100.00;101270.98;3586784;82;25791;-71
2020/12/17 15:57:56;;;;;;;45.90;32.07;;;;;;;4.75;100.00;101267.05;3587393;82;26016;-77
2020/12/17 16:02:57;;;;;;;45.23;31.17;;;;;;;4.67;100.00;101263.95;3590313;80;25757;-76
2020/12/17 16:07:58;;;;;;;42.95;30.95;;;;;;;4.63;100.00;101257.80;3587551;82;25780;-78
2020/12/17 16:13:01;;;;;;;42.47;30.73;;;;;;;4.72;100.00;101259.56;3586949;82;25733;-77
2020/12/17 16:18:04;;;;;;;45.67;30.33;;;;;;;4.68;100.00;101263.97;3587060;82;26238;-75
2020/12/17 16:23:06;;;;;;;47.37;31.33;;;;;;;4.68;100.00;101263.08;3586800;82;27903;-76
2020/12/17 16:28:07;;;;;;;40.17;28.37;;;;;;;4.66;100.00;101261.77;3586860;82;27714;-78
2020/12/17 16:33:09;;;;;;;42.70;30.73;;;;;;;4.61;100.00;101267.50;3586868;82;25757;-80
2020/12/17 16:38:10;;;;;;;41.40;29.90;;;;;;;4.75;100.00;101262.18;3586871;82;27822;-70
2020/12/17 16:43:11;;;;;;;42.87;30.70;;;;;;;4.68;100.00;101257.37;3602777;82;25687;-71
2020/12/17 16:48:13;;;;;;;39.40;28.77;;;;;;;4.60;100.00;101261.32;3621593;81;25783;-71
2020/12/17 16:53:13;;;;;;;38.70;28.17;;;;;;;4.52;100.00;101271.01;3621728;81;25740;-75
2020/12/17 16:58:14;;;;;;;35.57;27.23;;;;;;;4.55;100.00;101264.42;3621739;81;26009;-75
2020/12/17 17:03:15;;;;;;;38.65;28.80;;;;;;;4.56;100.00;101267.50;3621809;81;26087;-76
2020/12/17 17:08:16;;;;;;;37.27;27.67;;;;;;;4.56;100.00;101271.47;3621719;82;25748;-75
2020/12/17 17:13:17;;;;;;;38.63;28.53;;;;;;;4.53;100.00;101284.66;3621694;81;25814;-70
2020/12/17 17:18:18;;;;;;;36.73;27.83;;;;;;;4.50;100.00;101294.34;3621620;82;25754;-76
2020/12/17 17:23:19;;;;;;;36.30;26.97;;;;;;;4.42;100.00;101287.75;3622461;82;25730;-75
2020/12/17 17:28:20;;;;;;;36.53;27.07;;;;;;;4.45;100.00;101282.45;3623444;81;33720;-76
2020/12/17 17:33:23;;;;;;;43.33;31.37;;;;;;;4.51;100.00;101289.50;3624628;81;33704;-75
2020/12/17 17:38:24;;;;;;;42.33;30.23;;;;;;;4.45;100.00;101291.27;3622387;82;33274;-76
2020/12/17 17:43:25;;;;;;;37.57;28.43;;;;;;;4.44;100.00;101276.77;3621431;81;25803;-76
2020/12/17 17:48:26;;;;;;;38.30;27.27;;;;;;;4.34;100.00;101245.50;3621514;81;25803;-75
2020/12/17 17:53:27;;;;;;;41.03;29.93;;;;;;;4.31;100.00;101243.75;3621245;82;25787;-75
2020/12/17 17:58:28;;;;;;;39.80;28.50;;;;;;;4.20;100.00;101244.20;3621438;82;26205;-77
2020/12/17 18:03:29;;;;;;;41.37;28.77;;;;;;;4.10;100.00;101252.56;3621562;82;25914;-77
2020/12/17 18:08:29;;;;;;;43.00;30.17;;;;;;;4.03;100.00;101257.81;3621656;82;26242;-76
2020/12/17 18:13:30;;;;;;;37.90;28.77;;;;;;;3.97;100.00;101258.26;3621641;82;30996;-75
2020/12/17 18:18:31;;;;;;;45.27;28.70;;;;;;;3.92;100.00;101266.61;3621791;82;31104;-76
2020/12/17 18:23:32;;;;;;;41.70;27.90;;;;;;;3.81;100.00;101273.61;3621750;82;30881;-72
2020/12/17 18:28:33;;;;;;;43.20;27.20;;;;;;;3.71;100.00;101262.16;3621515;81;25839;-70
2020/12/17 18:33:35;;;;;;;44.40;30.50;;;;;;;3.56;100.00;101275.33;3621582;81;25716;-77
2020/12/17 18:38:37;;;;;;;37.37;28.30;;;;;;;3.56;100.00;101275.33;3621588;81;25835;-72
2020/12/17 18:43:38;;;;;;;38.13;26.97;;;;;;;3.54;100.00;101283.21;3621332;81;31459;-76
2020/12/17 18:48:39;;;;;;;39.77;26.93;;;;;;;3.50;100.00;101277.50;3621641;81;25821;-75
2020/12/17 18:53:41;;;;;;;39.50;28.57;;;;;;;3.37;100.00;101271.74;3621294;82;25791;-75
2020/12/17 18:58:42;;;;;;;37.40;29.27;;;;;;;3.30;100.00;101269.51;3621510;82;31046;-76
2020/12/17 19:03:43;;;;;;;35.07;26.43;;;;;;;3.28;100.00;101265.97;3621478;82;25796;-71
2020/12/17 19:08:44;;;;;;;35.50;27.40;;;;;;;3.18;100.00;101266.38;3621600;81;25859;-75
2020/12/17 19:13:45;;;;;;;37.03;27.53;;;;;;;3.12;100.00;101264.62;3621758;81;25848;-76
2020/12/17 19:18:46;;;;;;;36.60;27.33;;;;;;;3.01;100.00;101262.34;3621938;81;25762;-71
2020/12/17 19:23:47;;;;;;;42.20;30.17;;;;;;;2.89;100.00;101263.16;3621873;82;25904;-70
2020/12/17 19:28:49;;;;;;;45.73;30.97;;;;;;;2.87;100.00;101264.92;3622200;82;25774;-75
2020/12/17 19:33:49;;;;;;;43.23;30.07;;;;;;;2.83;100.00;101282.88;3621793;82;25743;-71
2020/12/17 19:38:51;;;;;;;35.87;28.27;;;;;;;2.83;100.00;101292.99;3623083;82;25864;-75
2020/12/17 19:43:51;;;;;;;40.13;30.47;;;;;;;2.86;100.00;101306.16;3621422;80;35293;-76
2020/12/17 19:48:52;;;;;;;41.23;30.17;;;;;;;2.84;100.00;101297.39;3621918;82;35339;-78
2020/12/17 19:53:53;;;;;;;37.50;27.87;;;;;;;2.80;100.00;101307.44;3622201;81;35297;-76
2020/12/17 19:58:54;;;;;;;41.37;30.33;;;;;;;2.80;100.00;101287.69;3621761;82;34839;-75
2020/12/17 20:03:56;;;;;;;34.40;25.97;;;;;;;2.93;100.00;101286.44;3621723;81;32164;-71
2020/12/17 20:08:57;;;;;;;42.97;30.67;;;;;;;2.90;100.00;101285.13;3621862;81;31068;-70
2020/12/17 20:13:58;;;;;;;39.87;28.20;;;;;;;2.89;100.00;101290.81;3621760;82;31165;-75
2020/12/17 20:19:00;;;;;;;35.33;28.00;;;;;;;2.83;100.00;101282.88;3621778;82;31163;-76
2020/12/17 20:24:01;;;;;;;31.07;24.07;;;;;;;2.91;100.00;101281.17;3621717;82;32094;-75
2020/12/17 20:29:09;;;;;;;35.20;26.90;;;;;;;2.84;100.00;101277.64;3621752;81;25780;-70
2020/12/17 20:34:12;;;;;;;32.10;25.17;;;;;;;2.87;100.00;101276.33;3621778;82;34830;-70
2020/12/17 20:39:17;;;;;;;33.93;28.03;;;;;;;2.85;100.00;101279.38;3621665;82;34789;-76
2020/12/17 20:44:20;;;;;;;31.87;24.80;;;;;;;2.87;100.00;101284.22;3620593;81;26067;-75
2020/12/17 20:49:21;;;;;;;30.93;23.20;;;;;;;2.73;100.00;101287.20;3621852;81;34898;-74
2020/12/17 20:54:22;;;;;;;29.37;22.80;;;;;;;2.65;100.00;101283.63;3621665;82;32150;-76
2020/12/17 20:59:28;;;;;;;26.57;20.67;;;;;;;2.67;100.00;101285.85;3622093;81;25886;-76
2020/12/17 21:04:29;;;;;;;27.07;21.07;;;;;;;2.63;100.00;101285.40;3620922;81;35343;-76
2020/12/17 21:09:31;;;;;;;25.40;19.57;;;;;;;2.63;100.00;101296.80;3621423;81;29677;-75
2020/12/17 21:14:32;;;;;;;24.73;19.33;;;;;;;2.64;100.00;101291.98;3621573;82;35363;-77
2020/12/17 21:19:33;;;;;;;23.87;18.23;;;;;;;2.65;100.00;101286.27;3621724;82;31542;-77
2020/12/17 21:24:34;;;;;;;24.73;18.57;;;;;;;2.60;100.00;101283.63;3621511;82;29587;-76
2020/12/17 21:29:35;;;;;;;20.80;17.07;;;;;;;2.62;100.00;101278.37;3621766;82;25684;-77
2020/12/17 21:34:36;;;;;;;23.13;18.17;;;;;;;2.69;100.00;101268.33;3621499;82;26246;-75
2020/12/17 21:39:40;;;;;;;24.47;20.03;;;;;;;2.66;100.00;101281.03;3621623;82;25823;-76
2020/12/17 21:44:42;;;;;;;25.73;21.40;;;;;;;2.67;100.00;101289.80;3621548;80;34864;-76
2020/12/17 21:49:44;;;;;;;23.37;19.10;;;;;;;2.68;100.00;101287.17;3621702;82;34896;-76
2020/12/17 21:54:45;;;;;;;22.17;17.93;;;;;;;2.75;100.00;101287.23;3621901;81;30174;-75
2020/12/17 21:59:46;;;;;;;21.97;17.37;;;;;;;2.67;100.00;101286.75;3622081;82;31162;-76
2020/12/17 22:04:47;;;;;;;19.70;16.27;;;;;;;2.74;100.00;101265.72;3622236;82;31225;-76
2020/12/17 22:09:48;;;;;;;23.20;18.43;;;;;;;2.76;100.00;101266.17;3621570;82;26276;-76
2020/12/17 22:14:49;;;;;;;24.53;17.73;;;;;;;2.78;100.00;101267.49;3622002;81;25803;-75
2020/12/17 22:19:50;;;;;;;20.43;17.37;;;;;;;2.74;100.00;101264.41;3623211;81;26679;-75
2020/12/17 22:24:51;;;;;;;18.90;16.43;;;;;;;2.73;100.00;101254.74;3622294;81;25905;-71
2020/12/17 22:29:52;;;;;;;21.73;19.10;;;;;;;2.81;100.00;101243.83;3621569;82;25749;-77
2020/12/17 22:34:53;;;;;;;23.03;17.70;;;;;;;2.77;100.00;101232.39;3622111;81;26330;-74
2020/12/17 22:39:54;;;;;;;20.63;16.97;;;;;;;2.74;100.00;101227.55;3622161;81;25890;-75
2020/12/17 22:44:55;;;;;;;19.20;16.47;;;;;;;2.81;100.00;101233.29;3619949;81;25794;-75
2020/12/17 22:49:56;;;;;;;21.50;17.48;;;;;;;2.80;100.00;101230.21;3586934;82;25812;-75